Time;durP1;ratioP1;P1;durP2;ratioP2;P2;SDS_P1;SDS_P2;PMS_P1;PMS_P2;Temp;Humidity;BMP_temperature;BMP_pressure;BME280_temperature;BME280_humidity;BME280_pressure;Samples;Min_cycle;Max_cycle;Signal;HPM_P1;HPM_P2
2022/11/18 06:03:24;;;;;;;1.30;0.20;;;7.80;99.90;;;;;;5092856;23;20051;-77
2022/11/18 06:05:54;;;;;;;1.30;0.40;;;7.80;99.90;;;;;;4964429;29;20035;-74
2022/11/18 06:08:21;;;;;;;0.52;0.10;;;7.80;99.90;;;;;;4964336;29;20313;-75
2022/11/18 06:10:49;;;;;;;0.82;0.20;;;7.80;99.90;;;;;;4964361;28;20047;-74
2022/11/18 06:13:21;;;;;;;0.20;0.10;;;7.80;99.90;;;;;;4964577;29;20038;-75
2022/11/18 06:15:47;;;;;;;1.20;0.20;;;7.70;99.90;;;;;;4964150;29;20035;-72
2022/11/18 06:18:29;;;;;;;2.35;0.10;;;7.80;99.90;;;;;;4964413;29;20233;-75
2022/11/18 06:20:59;;;;;;;1.02;0.38;;;7.80;99.90;;;;;;4964219;29;20034;-73
2022/11/18 06:23:27;;;;;;;1.05;0.40;;;7.70;99.90;;;;;;4964279;29;20035;-75
2022/11/18 06:25:53;;;;;;;2.70;0.85;;;7.80;99.90;;;;;;4964718;29;20047;-75
2022/11/18 06:28:20;;;;;;;2.45;0.75;;;7.70;99.90;;;;;;4964062;29;20178;-73
2022/11/18 06:30:46;;;;;;;1.58;0.30;;;7.80;99.90;;;;;;4963272;29;20316;-73
2022/11/18 06:33:12;;;;;;;1.58;0.40;;;7.80;99.90;;;;;;4963978;29;20062;-73
2022/11/18 06:35:38;;;;;;;2.10;0.50;;;7.80;99.90;;;;;;4957365;29;20035;-74
2022/11/18 06:38:03;;;;;;;6.07;3.63;;;7.80;99.90;;;;;;4945057;29;20104;-75
2022/11/18 06:40:30;;;;;;;5.88;2.45;;;7.80;99.90;;;;;;4943631;29;20087;-77
2022/11/18 06:48:37;;;;;;;6.53;3.55;;;7.80;99.90;;;;;;4924285;29;20042;-76
2022/11/18 06:51:06;;;;;;;6.57;3.22;;;7.80;99.90;;;;;;4944903;29;20336;-75
2022/11/18 06:53:33;;;;;;;3.95;2.00;;;7.90;99.90;;;;;;4944512;29;20296;-75
2022/11/18 06:56:11;;;;;;;2.30;1.02;;;7.90;99.90;;;;;;4944423;29;20339;-74
2022/11/18 06:58:37;;;;;;;2.03;1.00;;;8.00;99.90;;;;;;4943335;29;20327;-77
2022/11/18 07:01:20;;;;;;;2.08;0.90;;;8.00;99.90;;;;;;4944699;29;20028;-76
2022/11/18 07:03:47;;;;;;;3.10;0.60;;;8.00;99.90;;;;;;4925524;29;20111;-76
2022/11/18 07:06:16;;;;;;;1.60;0.57;;;8.00;99.90;;;;;;4933482;29;20198;-76
2022/11/18 07:08:42;;;;;;;1.45;0.50;;;8.10;99.90;;;;;;4943490;29;20389;-75
2022/11/18 07:11:11;;;;;;;1.35;0.50;;;8.10;99.90;;;;;;4944843;29;20027;-75
2022/11/18 07:13:40;;;;;;;2.28;0.60;;;8.20;99.90;;;;;;4943533;29;20028;-75
2022/11/18 07:16:18;;;;;;;1.85;0.60;;;8.20;99.90;;;;;;4944521;29;20120;-74
2022/11/18 07:18:45;;;;;;;2.63;0.55;;;8.30;99.90;;;;;;4944290;29;20055;-73
2022/11/18 07:21:14;;;;;;;2.17;0.52;;;8.30;99.90;;;;;;4944634;29;20051;-74
2022/11/18 07:23:40;;;;;;;2.78;0.80;;;8.40;99.90;;;;;;4949093;29;20039;-74
2022/11/18 07:26:06;;;;;;;2.72;0.90;;;8.40;99.90;;;;;;4951872;29;20306;-74
2022/11/18 07:28:33;;;;;;;2.72;0.50;;;8.40;99.90;;;;;;4949961;29;20086;-74
2022/11/18 07:31:07;;;;;;;2.40;0.57;;;8.40;99.90;;;;;;4966034;29;20042;-74
2022/11/18 07:33:40;;;;;;;4.70;0.80;;;8.40;99.90;;;;;;4947603;29;20087;-74
2022/11/18 07:36:23;;;;;;;1.80;0.50;;;8.40;99.90;;;;;;4938747;29;20055;-73
2022/11/18 07:39:09;;;;;;;2.97;1.10;;;8.40;99.90;;;;;;4924774;29;20050;-74
2022/11/18 07:41:38;;;;;;;4.03;0.60;;;8.30;99.90;;;;;;4923852;29;20332;-74
2022/11/18 07:44:19;;;;;;;1.88;0.40;;;8.40;99.90;;;;;;4925158;29;20028;-73
2022/11/18 07:51:10;;;;;;;1.77;0.43;;;8.40;99.90;;;;;;4852068;29;20157;-75
2022/11/18 07:57:26;;;;;;;2.25;0.40;;;8.50;99.90;;;;;;4907865;29;20084;-76
2022/11/18 08:00:04;;;;;;;0.60;0.28;;;8.60;99.90;;;;;;4906965;29;20025;-75
2022/11/18 08:02:48;;;;;;;2.47;0.30;;;8.60;99.90;;;;;;4906159;29;20063;-75
2022/11/18 08:05:16;;;;;;;1.20;0.30;;;8.70;99.90;;;;;;4907904;29;20044;-75
2022/11/18 08:07:42;;;;;;;1.90;0.40;;;8.70;99.90;;;;;;4913803;29;20115;-77
2022/11/18 08:10:08;;;;;;;2.60;0.30;;;8.70;99.90;;;;;;4907601;29;20039;-76
2022/11/18 08:12:34;;;;;;;1.23;0.25;;;8.80;99.90;;;;;;4907225;29;20044;-75
2022/11/18 08:14:59;;;;;;;2.03;0.38;;;8.80;99.90;;;;;;4907432;29;20107;-74
2022/11/18 08:17:32;;;;;;;1.67;0.30;;;8.80;99.90;;;;;;4914717;29;20036;-75
2022/11/18 08:19:59;;;;;;;0.80;0.30;;;8.80;99.90;;;;;;4942657;29;20044;-76
2022/11/18 08:22:25;;;;;;;1.02;0.30;;;8.90;99.90;;;;;;4945420;28;20035;-74
2022/11/18 08:24:54;;;;;;;1.25;0.35;;;8.90;99.90;;;;;;4943259;29;20249;-76
2022/11/18 08:27:20;;;;;;;1.27;0.43;;;8.90;99.90;;;;;;4945913;29;20047;-76
2022/11/18 08:29:45;;;;;;;1.40;0.30;;;8.90;99.90;;;;;;4946755;29;20027;-72
2022/11/18 08:32:12;;;;;;;0.65;0.20;;;8.90;99.90;;;;;;4947191;29;20097;-75
2022/11/18 08:34:38;;;;;;;1.25;0.40;;;8.90;99.90;;;;;;4943699;29;20039;-76
2022/11/18 08:37:04;;;;;;;1.67;0.20;;;8.90;99.90;;;;;;4940736;29;20029;-76
2022/11/18 08:39:29;;;;;;;1.50;0.30;;;8.80;99.90;;;;;;4945166;29;20042;-75
2022/11/18 08:41:57;;;;;;;0.90;0.22;;;8.90;99.90;;;;;;4945844;29;20082;-76
2022/11/18 08:44:23;;;;;;;1.33;0.30;;;8.90;99.90;;;;;;4942377;29;20051;-74
2022/11/18 08:46:48;;;;;;;1.08;0.20;;;9.00;99.90;;;;;;4943902;29;20030;-74
2022/11/18 08:49:14;;;;;;;2.00;0.30;;;9.10;99.90;;;;;;4944809;29;20054;-73
2022/11/18 08:51:40;;;;;;;2.70;0.57;;;9.20;99.90;;;;;;4944409;29;20325;-74
2022/11/18 08:54:06;;;;;;;1.85;0.30;;;9.20;99.90;;;;;;4944857;29;20028;-73
2022/11/18 08:56:39;;;;;;;1.00;0.40;;;9.20;99.90;;;;;;4944974;29;20038;-76
2022/11/18 08:59:04;;;;;;;1.02;0.30;;;9.20;99.90;;;;;;4945139;29;20039;-73
2022/11/18 09:01:30;;;;;;;1.15;0.30;;;9.20;99.90;;;;;;4944967;29;20036;-74
2022/11/18 09:03:56;;;;;;;1.35;0.30;;;9.30;99.90;;;;;;4944754;29;20089;-74
2022/11/18 09:06:25;;;;;;;1.48;0.50;;;9.30;99.90;;;;;;4945736;29;20059;-74
2022/11/18 09:08:52;;;;;;;1.08;0.35;;;9.40;99.90;;;;;;4944223;29;20110;-73
2022/11/18 09:11:23;;;;;;;2.10;0.40;;;9.50;99.90;;;;;;4946363;29;20075;-74
2022/11/18 09:13:56;;;;;;;1.25;0.30;;;9.60;99.90;;;;;;4945670;29;20055;-74
2022/11/18 09:16:26;;;;;;;1.60;0.43;;;9.70;99.90;;;;;;4946320;29;20038;-75
2022/11/18 09:18:53;;;;;;;2.00;0.50;;;9.80;99.90;;;;;;4945637;29;20039;-75
2022/11/18 09:21:19;;;;;;;1.10;0.30;;;9.80;99.90;;;;;;4945869;29;20055;-72
2022/11/18 09:23:45;;;;;;;1.15;0.30;;;9.80;99.90;;;;;;4936937;29;20056;-75
2022/11/18 09:26:13;;;;;;;2.85;0.60;;;9.80;99.90;;;;;;4941428;29;20034;-72
2022/11/18 09:28:40;;;;;;;1.40;0.50;;;9.80;99.90;;;;;;4942279;29;20035;-73
2022/11/18 09:31:14;;;;;;;1.23;0.47;;;9.80;99.90;;;;;;4926702;29;20043;-73
2022/11/18 09:33:40;;;;;;;2.72;0.50;;;9.70;99.90;;;;;;4926374;29;20040;-75
2022/11/18 09:36:33;;;;;;;0.93;0.30;;;9.70;99.90;;;;;;4938223;29;20202;-75
2022/11/18 09:38:59;;;;;;;0.93;0.40;;;9.60;99.90;;;;;;4941876;29;20074;-74
2022/11/18 09:41:48;;;;;;;0.73;0.22;;;9.60;99.90;;;;;;4935962;29;20023;-75
2022/11/18 09:44:29;;;;;;;1.85;0.20;;;9.50;99.90;;;;;;4944411;29;20032;-74
2022/11/18 09:47:28;;;;;;;0.82;0.20;;;9.40;99.90;;;;;;4944072;29;20042;-75
2022/11/18 09:49:57;;;;;;;1.75;0.40;;;9.40;99.90;;;;;;4924734;29;20468;-72
2022/11/18 09:52:27;;;;;;;1.98;0.30;;;9.40;99.90;;;;;;4925452;29;20075;-74
2022/11/18 09:54:53;;;;;;;1.20;0.40;;;9.40;99.90;;;;;;4939674;29;20504;-74
2022/11/18 09:57:24;;;;;;;1.40;0.50;;;9.30;99.90;;;;;;4939580;29;20153;-74
2022/11/18 09:59:50;;;;;;;3.88;0.50;;;9.30;99.90;;;;;;4942760;29;20217;-74
2022/11/18 10:02:29;;;;;;;2.45;0.98;;;9.30;99.90;;;;;;4942671;29;20032;-73
2022/11/18 10:05:07;;;;;;;;;;;9.50;99.90;;;;;;4944433;29;20043;-73
2022/11/18 10:07:46;;;;;;;2.05;0.50;;;9.50;99.90;;;;;;4944302;29;19907;-75
2022/11/18 10:10:21;;;;;;;1.13;0.30;;;9.60;99.90;;;;;;4944395;29;20038;-76
2022/11/18 10:12:59;;;;;;;1.48;0.60;;;9.60;99.90;;;;;;4942452;29;20051;-74
2022/11/18 10:15:45;;;;;;;0.85;0.28;;;9.70;99.90;;;;;;4942776;29;20276;-74
2022/11/18 10:18:26;;;;;;;2.03;0.32;;;9.70;99.90;;;;;;4942894;29;20051;-74
2022/11/18 10:21:15;;;;;;;2.95;1.13;;;9.70;99.90;;;;;;4942397;29;20027;-74
2022/11/18 10:23:55;;;;;;;1.25;0.57;;;9.90;99.90;;;;;;4942501;29;20095;-74
2022/11/18 10:26:57;;;;;;;1.10;0.40;;;9.90;99.90;;;;;;4943927;29;20094;-73
2022/11/18 10:29:24;;;;;;;1.10;0.38;;;9.90;99.90;;;;;;4940777;29;20043;-73
2022/11/18 10:32:22;;;;;;;1.23;0.40;;;10.00;99.90;;;;;;4942438;29;20044;-73
2022/11/18 10:34:52;;;;;;;1.63;0.60;;;10.00;99.90;;;;;;4931448;29;20070;-76
2022/11/18 10:37:30;;;;;;;1.58;0.50;;;10.00;99.90;;;;;;4944111;29;20039;-75
2022/11/18 10:39:57;;;;;;;;;;;9.90;99.90;;;;;;4943432;29;20238;-74
2022/11/18 10:42:29;;;;;;;1.00;0.40;;;10.00;99.90;;;;;;4943761;29;19903;-74
2022/11/18 10:45:13;;;;;;;2.03;0.60;;;10.00;99.90;;;;;;4943153;29;20027;-75
2022/11/18 10:47:38;;;;;;;4.03;1.00;;;10.00;99.90;;;;;;4942906;29;20217;-74
2022/11/18 10:50:35;;;;;;;1.95;0.75;;;10.20;99.90;;;;;;4943543;29;20019;-74
2022/11/18 10:53:01;;;;;;;1.88;0.63;;;10.40;99.90;;;;;;4943492;29;20032;-74
2022/11/18 10:55:34;;;;;;;2.30;0.90;;;10.50;99.90;;;;;;4943386;29;20042;-76
2022/11/18 10:58:11;;;;;;;2.08;0.70;;;10.60;99.90;;;;;;4941778;29;20055;-75
2022/11/18 11:00:48;;;;;;;1.65;0.70;;;10.60;99.90;;;;;;4943481;29;20036;-74
2022/11/18 11:03:26;;;;;;;2.05;0.63;;;10.70;99.90;;;;;;4943173;29;20075;-74
2022/11/18 11:06:14;;;;;;;1.58;0.65;;;10.60;99.90;;;;;;4943189;29;20024;-72
2022/11/18 11:09:00;;;;;;;1.85;0.80;;;10.50;99.90;;;;;;4942799;29;20031;-74
2022/11/18 11:11:30;;;;;;;2.58;0.80;;;10.40;99.90;;;;;;4943084;29;20035;-75
2022/11/18 11:14:10;;;;;;;2.15;0.70;;;10.30;99.90;;;;;;4943212;29;20055;-74
2022/11/18 11:17:07;;;;;;;2.47;0.70;;;10.10;99.90;;;;;;4943344;29;20066;-73
2022/11/18 11:20:28;;;;;;;1.40;0.57;;;9.90;99.90;;;;;;4941057;29;20259;-74
2022/11/18 11:22:55;;;;;;;2.35;0.70;;;9.80;99.90;;;;;;4897658;29;20044;-74
2022/11/18 11:25:34;;;;;;;1.90;0.70;;;9.70;99.90;;;;;;4934974;29;20047;-73
2022/11/18 11:28:17;;;;;;;1.55;0.70;;;9.70;99.90;;;;;;4944306;29;20455;-76
2022/11/18 11:31:02;;;;;;;2.40;0.77;;;9.70;99.90;;;;;;4946610;29;20046;-74
2022/11/18 11:33:38;;;;;;;2.38;0.80;;;9.80;99.90;;;;;;4947021;29;20024;-76
2022/11/18 11:36:29;;;;;;;1.77;0.50;;;10.00;99.90;;;;;;4946218;29;20043;-72
2022/11/18 11:39:04;;;;;;;3.15;0.88;;;10.10;99.90;;;;;;4928032;29;20055;-74
2022/11/18 11:42:01;;;;;;;2.42;0.50;;;10.30;99.90;;;;;;4946987;29;20036;-71
2022/11/18 11:44:43;;;;;;;2.30;0.80;;;10.60;99.90;;;;;;4946574;29;20031;-73
2022/11/18 11:47:46;;;;;;;1.25;0.40;;;11.00;99.90;;;;;;4930956;29;20040;-71
2022/11/18 11:50:27;;;;;;;1.50;0.63;;;11.40;99.90;;;;;;4941005;29;20277;-72
2022/11/18 11:53:27;;;;;;;1.60;0.50;;;11.50;99.90;;;;;;4927779;29;20039;-73
2022/11/18 12:00:34;;;;;;;;;;;;;;;;;;;;;
2022/11/18 12:03:42;;;;;;;1.67;0.40;;;11.80;99.90;;;;;;4945473;29;20271;-73
2022/11/18 12:06:11;;;;;;;1.10;0.40;;;11.60;99.90;;;;;;4926887;29;20047;-75
2022/11/18 12:08:49;;;;;;;4.32;0.70;;;11.60;99.90;;;;;;4945164;29;20039;-73
2022/11/18 12:11:44;;;;;;;1.65;0.40;;;11.60;99.90;;;;;;4946139;29;20329;-73
2022/11/18 12:14:28;;;;;;;2.35;0.40;;;11.50;99.90;;;;;;4928570;29;20070;-73
2022/11/18 12:17:26;;;;;;;1.90;0.47;;;11.40;99.90;;;;;;4945414;29;20035;-73
2022/11/18 12:19:55;;;;;;;1.40;0.40;;;11.40;99.90;;;;;;4926789;29;20035;-73
2022/11/18 12:23:05;;;;;;;1.65;0.28;;;11.30;99.90;;;;;;4927191;29;20103;-72
2022/11/18 12:25:59;;;;;;;1.02;0.30;;;11.20;99.90;;;;;;4942617;29;20043;-72
2022/11/18 12:28:42;;;;;;;1.73;0.38;;;11.00;99.90;;;;;;4929173;29;20020;-72
2022/11/18 12:34:44;;;;;;;2.20;0.52;;;10.70;99.90;;;;;;4946045;29;20020;-72
2022/11/18 12:37:25;;;;;;;4.50;0.65;;;10.50;99.90;;;;;;4926775;29;20047;-71
2022/11/18 12:40:10;;;;;;;2.28;0.50;;;10.40;99.90;;;;;;4925304;29;20043;-72
2022/11/18 12:45:56;;;;;;;1.58;0.30;;;10.30;99.90;;;;;;4908037;29;20112;-72
2022/11/18 12:48:51;;;;;;;1.73;0.40;;;10.30;99.90;;;;;;4945635;29;20103;-72
2022/11/18 12:51:17;;;;;;;4.75;0.80;;;10.20;99.90;;;;;;4945082;29;20136;-72
2022/11/18 12:54:34;;;;;;;1.48;0.55;;;10.20;99.90;;;;;;4944383;29;20541;-72
2022/11/18 12:57:28;;;;;;;1.75;0.55;;;10.10;99.90;;;;;;4944948;29;20328;-72
2022/11/18 13:00:22;;;;;;;2.22;0.90;;;10.10;99.90;;;;;;4925495;29;20043;-71
2022/11/18 13:06:18;;;;;;;2.58;0.68;;;9.90;99.90;;;;;;4929583;29;20057;-72
2022/11/18 13:09:14;;;;;;;3.00;1.40;;;10.00;99.90;;;;;;4944790;29;20031;-72
2022/11/18 13:11:50;;;;;;;3.90;0.93;;;10.00;99.90;;;;;;4945140;29;20080;-72
2022/11/18 13:20:26;;;;;;;3.25;0.70;;;10.90;99.90;;;;;;4925520;29;20472;-72
2022/11/18 13:25:41;;;;;;;2.65;0.65;;;11.50;99.90;;;;;;4925769;29;20067;-74
2022/11/18 13:28:07;;;;;;;1.83;0.53;;;12.00;99.90;;;;;;4908620;29;20212;-74
2022/11/18 13:30:35;;;;;;;3.15;0.93;;;12.80;99.90;;;;;;4925723;29;20217;-72
2022/11/18 13:33:01;;;;;;;3.47;0.80;;;13.30;99.90;;;;;;4925286;29;20075;-73
2022/11/18 13:35:28;;;;;;;2.92;0.82;;;13.30;99.90;;;;;;4931751;29;20063;-74
2022/11/18 13:37:59;;;;;;;5.63;0.70;;;12.90;99.90;;;;;;4944209;29;20034;-74
2022/11/18 13:40:37;;;;;;;2.72;0.80;;;12.60;99.90;;;;;;4943256;29;20032;-73
2022/11/18 13:43:03;;;;;;;4.57;1.00;;;12.10;99.90;;;;;;4943094;29;20036;-74
2022/11/18 13:45:29;;;;;;;3.90;0.70;;;11.70;99.90;;;;;;4944565;29;20466;-76
2022/11/18 13:48:04;;;;;;;2.25;0.73;;;12.10;99.90;;;;;;4958767;29;20051;-73
2022/11/18 13:50:39;;;;;;;4.05;0.80;;;12.80;99.90;;;;;;4944262;29;20043;-76
2022/11/18 13:53:28;;;;;;;3.30;0.73;;;13.50;99.90;;;;;;4944018;29;20167;-73
2022/11/18 13:55:55;;;;;;;;;;;14.20;99.90;;;;;;4944414;29;20127;-74
2022/11/18 13:58:40;;;;;;;1.65;0.45;;;14.00;99.90;;;;;;4944495;29;19950;-74
2022/11/18 14:01:38;;;;;;;1.77;0.50;;;13.70;99.90;;;;;;4942946;29;20035;-75
2022/11/18 14:04:22;;;;;;;3.08;0.80;;;13.10;99.90;;;;;;4942869;29;20048;-76
2022/11/18 14:06:49;;;;;;;2.58;0.95;;;12.90;99.90;;;;;;4943736;29;20030;-75
2022/11/18 14:09:24;;;;;;;1.90;0.65;;;13.40;99.90;;;;;;4943950;29;20054;-73
2022/11/18 14:12:21;;;;;;;2.03;0.60;;;13.40;99.90;;;;;;4943591;29;20042;-74
2022/11/18 14:14:47;;;;;;;2.55;0.73;;;13.40;99.90;;;;;;4959098;29;20032;-74
2022/11/18 14:17:25;;;;;;;2.58;0.45;;;13.50;99.90;;;;;;4958149;29;20209;-73
2022/11/18 14:19:56;;;;;;;2.15;0.80;;;13.60;99.90;;;;;;4943546;29;20062;-73
2022/11/18 14:22:25;;;;;;;1.35;0.50;;;13.80;99.90;;;;;;4926562;29;20058;-74
2022/11/18 14:24:54;;;;;;;;;;;13.90;99.90;;;;;;4944351;29;20039;-75
2022/11/18 14:27:59;;;;;;;3.55;0.60;;;14.00;99.90;;;;;;4943636;29;19915;-75
2022/11/18 14:30:53;;;;;;;2.00;0.75;;;13.60;99.90;;;;;;4943815;29;20039;-76
2022/11/18 14:33:31;;;;;;;1.98;0.50;;;13.90;99.90;;;;;;4926697;29;20040;-77
2022/11/18 14:36:08;;;;;;;4.85;0.75;;;14.40;99.90;;;;;;4960977;29;20051;-74
2022/11/18 14:38:39;;;;;;;1.67;0.50;;;14.90;99.90;;;;;;4944623;29;20295;-75
2022/11/18 14:41:08;;;;;;;2.83;0.70;;;15.50;99.90;;;;;;4943146;29;20318;-76
2022/11/18 14:43:34;;;;;;;2.72;0.90;;;15.70;99.90;;;;;;4944094;29;20020;-76
2022/11/18 14:49:16;;;;;;;2.97;0.75;;;15.20;99.40;;;;;;4924325;29;20281;-76
2022/11/18 14:51:43;;;;;;;2.55;0.88;;;14.30;99.90;;;;;;4934503;29;20024;-75
2022/11/18 14:54:22;;;;;;;3.53;0.80;;;13.80;99.90;;;;;;4943075;29;20135;-76
2022/11/18 14:57:34;;;;;;;6.53;1.65;;;13.10;99.90;;;;;;4865804;29;20045;-75
2022/11/18 15:00:33;;;;;;;5.32;1.02;;;13.10;99.90;;;;;;4865920;29;20044;-76
2022/11/18 15:03:11;;;;;;;4.13;1.00;;;12.90;99.90;;;;;;4867610;29;20060;-76
2022/11/18 15:06:38;;;;;;;2.70;0.73;;;12.70;99.90;;;;;;4869698;29;20033;-77
2022/11/18 15:09:06;;;;;;;3.28;0.90;;;12.40;99.90;;;;;;4869313;29;20045;-76
2022/11/18 15:12:02;;;;;;;3.67;1.05;;;11.80;99.90;;;;;;4851080;29;20045;-76
2022/11/18 15:15:41;;;;;;;4.75;1.00;;;11.40;99.90;;;;;;4832956;29;20087;-75
2022/11/18 15:18:08;;;;;;;5.03;1.00;;;10.90;99.90;;;;;;4832487;29;20046;-76
2022/11/18 15:20:34;;;;;;;3.88;1.10;;;10.80;99.90;;;;;;4833088;29;20147;-75
2022/11/18 15:23:02;;;;;;;2.38;1.00;;;10.60;99.90;;;;;;4832368;29;20340;-76
2022/11/18 15:25:27;;;;;;;4.00;1.05;;;10.40;99.90;;;;;;4832874;29;20050;-76
2022/11/18 15:27:53;;;;;;;4.30;0.98;;;10.40;99.90;;;;;;4832773;29;20051;-76
2022/11/18 15:30:19;;;;;;;3.28;1.20;;;10.30;99.90;;;;;;4832676;29;20030;-77
2022/11/18 15:32:45;;;;;;;4.22;1.13;;;10.20;99.90;;;;;;4832888;29;20072;-76
2022/11/18 15:35:30;;;;;;;4.93;1.70;;;10.10;99.90;;;;;;4882232;29;20079;-77
2022/11/18 15:41:17;;;;;;;4.15;1.35;;;10.00;99.90;;;;;;4832259;29;20272;-76
2022/11/18 15:43:44;;;;;;;;;;;10.00;99.90;;;;;;4833330;29;20041;-76
2022/11/18 15:46:09;;;;;;;5.50;1.10;;;10.00;99.90;;;;;;4917709;29;19949;-76
2022/11/18 15:48:37;;;;;;;4.90;1.88;;;9.90;99.90;;;;;;4946633;29;20070;-76
2022/11/18 15:51:04;;;;;;;3.95;1.10;;;10.00;99.90;;;;;;4945886;29;20115;-76
2022/11/18 15:53:34;;;;;;;6.80;1.20;;;9.90;99.90;;;;;;4946596;29;20318;-75
2022/11/18 16:04:42;;;;;;;5.72;1.85;;;9.80;99.90;;;;;;4831627;29;20153;-75
2022/11/18 16:22:05;;;;;;;6.80;1.88;;;9.60;99.90;;;;;;4831764;29;20114;-76
2022/11/18 16:24:31;;;;;;;6.35;1.75;;;9.50;99.90;;;;;;4831513;29;20355;-77
2022/11/18 16:26:57;;;;;;;10.75;2.00;;;9.50;99.90;;;;;;4816241;29;20077;-76
2022/11/18 16:29:23;;;;;;;4.13;1.63;;;9.50;99.90;;;;;;4831495;29;20038;-76
2022/11/18 16:31:50;;;;;;;3.83;1.50;;;9.50;99.90;;;;;;4831698;29;20038;-75
2022/11/18 16:34:22;;;;;;;6.07;1.60;;;9.50;99.90;;;;;;4846778;29;20046;-75
2022/11/18 16:36:51;;;;;;;6.22;1.88;;;9.40;99.90;;;;;;4884501;29;20072;-75
2022/11/18 16:39:24;;;;;;;3.63;1.35;;;9.40;99.90;;;;;;4907432;29;20020;-74
2022/11/18 16:42:01;;;;;;;7.05;1.70;;;9.40;99.90;;;;;;4907557;29;20037;-78
2022/11/18 16:44:27;;;;;;;5.85;1.90;;;9.40;99.90;;;;;;4907442;29;20333;-76
2022/11/18 16:46:56;;;;;;;5.97;1.73;;;9.40;99.90;;;;;;4908624;29;20025;-77
2022/11/18 16:49:24;;;;;;;5.65;1.85;;;9.30;99.90;;;;;;4926032;29;20226;-76
2022/11/18 16:51:53;;;;;;;4.53;1.40;;;9.40;99.90;;;;;;4925433;29;20028;-77
2022/11/18 16:54:27;;;;;;;4.43;1.67;;;9.40;99.90;;;;;;4926200;29;20079;-75
2022/11/18 16:56:55;;;;;;;6.82;1.60;;;9.40;99.90;;;;;;4926481;29;20103;-75
2022/11/18 16:59:26;;;;;;;6.85;2.35;;;9.30;99.90;;;;;;4925492;29;20039;-75
2022/11/18 17:01:53;;;;;;;5.85;1.90;;;9.40;99.90;;;;;;4926966;29;20035;-75
2022/11/18 17:04:20;;;;;;;7.05;2.00;;;9.40;99.90;;;;;;4944532;29;20039;-75
2022/11/18 17:06:46;;;;;;;7.53;1.92;;;9.40;99.90;;;;;;4944840;29;20062;-75
2022/11/18 17:09:14;;;;;;;3.92;1.77;;;9.30;99.90;;;;;;4943999;29;20024;-76
2022/11/18 17:11:40;;;;;;;8.07;2.00;;;9.30;99.90;;;;;;4944540;29;20373;-77
2022/11/18 17:14:06;;;;;;;3.75;1.55;;;9.40;99.90;;;;;;4944447;29;20023;-76
2022/11/18 17:16:32;;;;;;;9.82;3.08;;;9.30;99.90;;;;;;4944929;29;20107;-75
2022/11/18 17:18:59;;;;;;;4.72;1.75;;;9.20;99.90;;;;;;4944565;29;20102;-76
2022/11/18 17:21:26;;;;;;;4.82;2.05;;;9.30;99.90;;;;;;4944672;29;20028;-76
2022/11/18 17:23:56;;;;;;;3.05;1.20;;;9.30;99.90;;;;;;4944709;29;20059;-75
2022/11/18 17:26:26;;;;;;;4.07;1.50;;;9.30;99.90;;;;;;4942476;29;20058;-75
2022/11/18 17:28:54;;;;;;;5.07;1.73;;;9.30;99.90;;;;;;4942965;29;20126;-76
2022/11/18 17:31:22;;;;;;;4.55;1.83;;;9.20;99.90;;;;;;4943714;29;20035;-74
2022/11/18 17:33:50;;;;;;;5.70;2.08;;;9.20;99.90;;;;;;4943248;29;20031;-75
2022/11/18 17:36:18;;;;;;;5.25;2.15;;;9.20;99.90;;;;;;4944167;29;20035;-75
2022/11/18 17:38:54;;;;;;;9.07;2.60;;;9.20;99.90;;;;;;4944863;29;20031;-76
2022/11/18 17:44:16;;;;;;;6.78;2.03;;;9.10;99.90;;;;;;4943947;29;20091;-75
2022/11/18 17:46:46;;;;;;;9.63;4.88;;;8.90;99.90;;;;;;4943943;29;20039;-75
2022/11/18 17:49:20;;;;;;;6.43;2.80;;;8.90;99.90;;;;;;4942531;29;20091;-72
2022/11/18 17:51:45;;;;;;;5.45;2.63;;;8.90;99.90;;;;;;4944019;29;20166;-73
2022/11/18 17:54:12;;;;;;;9.18;4.28;;;8.90;99.90;;;;;;4943774;29;20015;-74
2022/11/18 17:56:47;;;;;;;6.30;2.95;;;8.90;99.90;;;;;;4943717;29;20317;-72
2022/11/18 17:59:20;;;;;;;6.15;2.15;;;8.90;99.90;;;;;;4942048;29;20049;-74
2022/11/18 18:01:46;;;;;;;3.72;1.80;;;9.00;99.90;;;;;;4930702;29;20381;-75
2022/11/18 18:04:18;;;;;;;3.80;2.20;;;9.00;99.90;;;;;;4922300;29;20040;-77
2022/11/18 18:06:50;;;;;;;5.55;2.25;;;9.00;99.90;;;;;;4923855;29;20048;-74
2022/11/18 18:09:40;;;;;;;6.55;3.00;;;9.00;99.90;;;;;;4923630;29;20067;-76
2022/11/18 18:14:51;;;;;;;7.60;2.55;;;8.80;99.90;;;;;;4925017;29;20083;-75
2022/11/18 18:17:16;;;;;;;6.78;2.28;;;8.80;99.90;;;;;;4934407;29;20099;-75
2022/11/18 18:19:48;;;;;;;5.85;2.67;;;8.80;99.90;;;;;;4924443;29;20020;-76
2022/11/18 18:22:14;;;;;;;7.20;3.10;;;8.70;99.90;;;;;;4936573;29;20090;-76
2022/11/18 18:24:39;;;;;;;6.50;3.50;;;8.70;99.90;;;;;;4958332;29;20023;-75
2022/11/18 18:27:08;;;;;;;5.10;2.65;;;8.60;99.90;;;;;;4943887;29;20135;-74
2022/11/18 18:29:34;;;;;;;6.68;2.50;;;8.60;99.90;;;;;;4943754;29;20095;-75
2022/11/18 18:32:01;;;;;;;6.50;2.78;;;8.60;99.90;;;;;;4943572;29;20028;-77
2022/11/18 18:34:27;;;;;;;5.65;3.17;;;8.60;99.90;;;;;;4958247;29;20027;-75
2022/11/18 18:36:53;;;;;;;7.05;3.25;;;8.50;99.90;;;;;;4942747;29;20066;-74
2022/11/18 18:39:19;;;;;;;13.45;4.40;;;8.50;99.90;;;;;;4941760;29;20050;-75
2022/11/18 18:41:44;;;;;;;7.90;2.83;;;8.40;99.90;;;;;;4942279;29;20027;-72
2022/11/18 18:44:10;;;;;;;12.38;5.45;;;8.40;99.90;;;;;;4942898;29;20027;-74
2022/11/18 18:46:39;;;;;;;15.18;5.68;;;8.40;99.90;;;;;;4943058;29;20123;-72
2022/11/18 18:49:10;;;;;;;6.45;3.40;;;8.20;99.90;;;;;;4942395;29;20050;-77
2022/11/18 18:51:54;;;;;;;10.15;4.00;;;8.20;99.90;;;;;;4933617;29;20175;-74
2022/11/18 18:54:20;;;;;;;6.82;3.45;;;8.10;99.90;;;;;;4923120;29;20301;-78
2022/11/18 18:56:46;;;;;;;8.65;3.30;;;7.90;99.90;;;;;;4928508;29;20016;-77
2022/11/18 18:59:11;;;;;;;6.07;2.78;;;7.80;99.90;;;;;;4959203;29;20028;-76
2022/11/18 19:01:40;;;;;;;6.18;2.72;;;7.70;99.90;;;;;;4958594;29;20074;-76
2022/11/18 19:04:18;;;;;;;4.82;2.60;;;7.60;99.90;;;;;;4940200;29;20040;-77
2022/11/18 19:06:46;;;;;;;5.05;2.30;;;7.50;99.90;;;;;;4943237;29;20319;-76
2022/11/18 19:09:12;;;;;;;6.82;2.38;;;7.60;99.90;;;;;;4942807;29;20024;-76
2022/11/18 19:14:52;;;;;;;4.90;2.25;;;7.60;99.90;;;;;;4942587;29;20272;-76
2022/11/18 19:17:20;;;;;;;4.70;2.28;;;7.60;99.90;;;;;;4941326;29;20019;-80
2022/11/18 19:23:21;;;;;;;4.35;1.60;;;7.70;99.90;;;;;;4943747;29;20558;-76
2022/11/18 19:29:57;;;;;;;7.18;2.50;;;7.80;99.90;;;;;;4943660;29;20023;-76
2022/11/18 19:32:38;;;;;;;4.07;1.85;;;7.90;99.90;;;;;;4926493;29;20027;-78
2022/11/18 19:35:25;;;;;;;4.90;1.98;;;7.90;99.90;;;;;;4944611;29;20286;-75
2022/11/18 19:37:54;;;;;;;5.53;2.25;;;8.00;99.90;;;;;;4928657;29;20372;-77
2022/11/18 19:40:23;;;;;;;7.40;2.67;;;8.00;99.90;;;;;;4929081;29;20064;-76
2022/11/18 19:43:01;;;;;;;4.07;2.00;;;8.10;99.90;;;;;;4944783;29;20039;-78
2022/11/18 19:45:27;;;;;;;4.32;1.80;;;8.00;99.90;;;;;;4909692;29;20333;-75
2022/11/18 19:48:09;;;;;;;4.10;1.77;;;8.10;99.90;;;;;;4925957;29;20036;-75
2022/11/18 19:50:35;;;;;;;4.45;2.03;;;8.10;99.90;;;;;;4947426;29;20027;-76
2022/11/18 19:53:30;;;;;;;5.78;2.55;;;8.10;99.90;;;;;;4932407;29;20027;-77
2022/11/18 19:55:58;;;;;;;4.45;1.98;;;8.10;99.90;;;;;;4964091;29;20057;-75
2022/11/18 20:02:21;;;;;;;4.47;2.38;;;8.10;99.90;;;;;;4966062;28;20034;-76
2022/11/18 20:08:23;;;;;;;4.75;2.65;;;8.10;99.90;;;;;;4966207;29;20042;-77
2022/11/18 20:10:50;;;;;;;5.60;2.13;;;8.00;99.90;;;;;;4966516;29;20122;-75
2022/11/18 20:13:19;;;;;;;18.08;11.38;;;8.10;99.90;;;;;;4948205;29;20019;-76
2022/11/18 20:21:59;;;;;;;4.88;2.47;;;8.00;99.90;;;;;;4907155;29;20080;-76
2022/11/18 20:24:25;;;;;;;6.25;3.20;;;8.00;99.90;;;;;;4891281;29;20099;-75
2022/11/18 20:26:51;;;;;;;8.82;5.05;;;8.00;99.90;;;;;;4896029;29;20342;-74
2022/11/18 20:29:59;;;;;;;5.65;2.20;;;8.00;99.90;;;;;;4909243;29;20024;-76
2022/11/18 20:32:28;;;;;;;5.68;2.70;;;8.00;99.90;;;;;;4925075;29;20038;-76
2022/11/18 20:35:43;;;;;;;5.68;2.90;;;8.00;99.90;;;;;;4926506;29;20036;-76
2022/11/18 20:38:11;;;;;;;5.32;2.50;;;8.00;99.90;;;;;;4926541;29;20043;-76
2022/11/18 20:48:54;;;;;;;4.25;1.85;;;8.00;99.90;;;;;;4920869;29;20246;-77
2022/11/18 20:51:27;;;;;;;3.30;1.40;;;8.10;99.90;;;;;;4909582;29;20086;-76
2022/11/18 20:57:42;;;;;;;2.28;1.05;;;8.20;99.90;;;;;;4926460;29;20104;-75
2022/11/18 21:00:09;;;;;;;3.63;1.20;;;8.10;99.90;;;;;;4924739;29;20061;-77
2022/11/18 21:02:43;;;;;;;3.10;1.45;;;8.10;99.90;;;;;;4908471;29;20325;-75
2022/11/18 21:05:09;;;;;;;3.05;1.15;;;8.10;99.90;;;;;;4914498;29;20043;-77
2022/11/18 21:07:38;;;;;;;3.10;1.33;;;8.00;99.90;;;;;;4907560;29;20096;-78
2022/11/18 21:10:03;;;;;;;;;;;8.00;99.90;;;;;;4912859;29;20031;-77
2022/11/18 21:12:29;;;;;;;2.58;1.20;;;7.90;99.90;;;;;;4925869;29;19907;-76
2022/11/18 21:14:55;;;;;;;2.50;1.23;;;7.90;99.90;;;;;;4926127;29;20091;-76
2022/11/18 21:17:21;;;;;;;2.60;1.00;;;7.80;99.90;;;;;;4894472;29;20116;-76
2022/11/18 21:19:46;;;;;;;3.47;1.50;;;7.80;99.90;;;;;;4890373;29;20028;-74
2022/11/18 21:22:12;;;;;;;3.88;1.38;;;7.70;99.90;;;;;;4906603;29;20044;-75